sensor_id;sensor_type;location;lat;lon;timestamp;P1;durP1;ratioP1;P2;durP2;ratioP2
12776;SDS011;6452;41.572;23.732;2022-12-29T00:00:06;86.95;;;59.65;;
12776;SDS011;6452;41.572;23.732;2022-12-29T00:02:32;98.43;;;67.07;;
12776;SDS011;6452;41.572;23.732;2022-12-29T00:04:58;101.28;;;66.47;;
12776;SDS011;6452;41.572;23.732;2022-12-29T00:07:25;94.18;;;65.72;;
12776;SDS011;6452;41.572;23.732;2022-12-29T00:09:51;94.93;;;65.80;;
12776;SDS011;6452;41.572;23.732;2022-12-29T00:12:18;98.90;;;68.47;;
12776;SDS011;6452;41.572;23.732;2022-12-29T00:14:44;98.18;;;69.10;;
12776;SDS011;6452;41.572;23.732;2022-12-29T00:17:28;95.47;;;68.15;;
12776;SDS011;6452;41.572;23.732;2022-12-29T00:19:54;96.53;;;68.88;;
12776;SDS011;6452;41.572;23.732;2022-12-29T00:22:38;98.25;;;70.32;;
12776;SDS011;6452;41.572;23.732;2022-12-29T00:25:23;102.82;;;72.22;;
12776;SDS011;6452;41.572;23.732;2022-12-29T00:28:08;100.20;;;72.47;;
12776;SDS011;6452;41.572;23.732;2022-12-29T00:30:52;104.93;;;74.00;;
12776;SDS011;6452;41.572;23.732;2022-12-29T00:33:36;107.40;;;78.13;;
12776;SDS011;6452;41.572;23.732;2022-12-29T00:36:31;117.80;;;78.90;;
12776;SDS011;6452;41.572;23.732;2022-12-29T00:39:02;109.72;;;79.13;;
12776;SDS011;6452;41.572;23.732;2022-12-29T00:41:47;120.10;;;84.30;;
12776;SDS011;6452;41.572;23.732;2022-12-29T00:44:31;132.52;;;91.78;;
12776;SDS011;6452;41.572;23.732;2022-12-29T00:46:57;137.65;;;96.03;;
12776;SDS011;6452;41.572;23.732;2022-12-29T00:49:27;155.65;;;103.40;;
12776;SDS011;6452;41.572;23.732;2022-12-29T00:52:06;142.52;;;100.82;;
12776;SDS011;6452;41.572;23.732;2022-12-29T00:54:33;140.73;;;97.07;;
12776;SDS011;6452;41.572;23.732;2022-12-29T00:57:00;117.22;;;77.68;;
12776;SDS011;6452;41.572;23.732;2022-12-29T00:59:26;101.97;;;70.63;;
12776;SDS011;6452;41.572;23.732;2022-12-29T01:01:52;100.63;;;70.97;;
12776;SDS011;6452;41.572;23.732;2022-12-29T01:04:20;96.10;;;65.28;;
12776;SDS011;6452;41.572;23.732;2022-12-29T01:06:46;88.70;;;62.53;;
12776;SDS011;6452;41.572;23.732;2022-12-29T01:09:12;88.25;;;64.90;;
12776;SDS011;6452;41.572;23.732;2022-12-29T01:11:56;97.03;;;66.97;;
12776;SDS011;6452;41.572;23.732;2022-12-29T01:14:22;100.00;;;69.05;;
12776;SDS011;6452;41.572;23.732;2022-12-29T01:16:48;91.97;;;68.53;;
12776;SDS011;6452;41.572;23.732;2022-12-29T01:19:14;113.18;;;81.82;;
12776;SDS011;6452;41.572;23.732;2022-12-29T01:21:41;109.68;;;80.07;;
12776;SDS011;6452;41.572;23.732;2022-12-29T01:24:07;101.30;;;74.82;;
12776;SDS011;6452;41.572;23.732;2022-12-29T01:26:33;103.00;;;73.13;;
12776;SDS011;6452;41.572;23.732;2022-12-29T01:28:59;105.22;;;74.65;;
12776;SDS011;6452;41.572;23.732;2022-12-29T01:31:25;99.68;;;72.32;;
12776;SDS011;6452;41.572;23.732;2022-12-29T01:33:51;115.38;;;78.72;;
12776;SDS011;6452;41.572;23.732;2022-12-29T01:36:17;114.35;;;79.53;;
12776;SDS011;6452;41.572;23.732;2022-12-29T01:38:44;99.75;;;72.47;;
12776;SDS011;6452;41.572;23.732;2022-12-29T01:41:11;100.88;;;73.82;;
12776;SDS011;6452;41.572;23.732;2022-12-29T01:46:07;94.45;;;67.05;;
12776;SDS011;6452;41.572;23.732;2022-12-29T01:48:39;97.00;;;69.47;;
12776;SDS011;6452;41.572;23.732;2022-12-29T01:51:05;95.68;;;68.45;;
12776;SDS011;6452;41.572;23.732;2022-12-29T01:53:31;90.15;;;66.00;;
12776;SDS011;6452;41.572;23.732;2022-12-29T01:56:00;96.97;;;68.50;;
12776;SDS011;6452;41.572;23.732;2022-12-29T01:58:29;89.03;;;66.35;;
12776;SDS011;6452;41.572;23.732;2022-12-29T02:00:56;92.90;;;66.60;;
12776;SDS011;6452;41.572;23.732;2022-12-29T02:03:22;90.97;;;67.28;;
12776;SDS011;6452;41.572;23.732;2022-12-29T02:05:58;86.30;;;62.67;;
12776;SDS011;6452;41.572;23.732;2022-12-29T02:08:29;89.28;;;64.80;;
12776;SDS011;6452;41.572;23.732;2022-12-29T02:10:56;90.82;;;65.43;;
12776;SDS011;6452;41.572;23.732;2022-12-29T02:13:25;91.20;;;65.00;;
12776;SDS011;6452;41.572;23.732;2022-12-29T02:16:02;94.57;;;69.32;;
12776;SDS011;6452;41.572;23.732;2022-12-29T02:26:03;89.47;;;65.60;;
12776;SDS011;6452;41.572;23.732;2022-12-29T02:28:53;88.93;;;64.80;;
12776;SDS011;6452;41.572;23.732;2022-12-29T02:31:31;87.82;;;61.78;;
12776;SDS011;6452;41.572;23.732;2022-12-29T02:39:13;91.70;;;65.80;;
12776;SDS011;6452;41.572;23.732;2022-12-29T02:47:09;93.20;;;67.80;;
12776;SDS011;6452;41.572;23.732;2022-12-29T02:49:38;95.43;;;67.65;;
12776;SDS011;6452;41.572;23.732;2022-12-29T02:52:14;101.53;;;74.15;;
12776;SDS011;6452;41.572;23.732;2022-12-29T02:54:42;94.88;;;68.05;;
12776;SDS011;6452;41.572;23.732;2022-12-29T02:59:46;99.70;;;72.20;;
12776;SDS011;6452;41.572;23.732;2022-12-29T03:05:06;101.60;;;69.22;;
12776;SDS011;6452;41.572;23.732;2022-12-29T03:07:39;99.85;;;73.63;;
12776;SDS011;6452;41.572;23.732;2022-12-29T03:12:39;103.82;;;73.80;;
12776;SDS011;6452;41.572;23.732;2022-12-29T03:15:45;99.55;;;68.60;;
12776;SDS011;6452;41.572;23.732;2022-12-29T03:21:20;95.70;;;66.53;;
12776;SDS011;6452;41.572;23.732;2022-12-29T03:24:08;88.10;;;60.30;;
12776;SDS011;6452;41.572;23.732;2022-12-29T03:26:34;83.55;;;56.65;;
12776;SDS011;6452;41.572;23.732;2022-12-29T03:29:01;71.38;;;50.05;;
12776;SDS011;6452;41.572;23.732;2022-12-29T03:31:28;61.58;;;44.90;;
12776;SDS011;6452;41.572;23.732;2022-12-29T03:33:54;64.85;;;44.28;;
12776;SDS011;6452;41.572;23.732;2022-12-29T03:36:26;54.67;;;39.42;;
12776;SDS011;6452;41.572;23.732;2022-12-29T03:39:03;53.20;;;37.58;;
12776;SDS011;6452;41.572;23.732;2022-12-29T03:41:42;42.78;;;31.23;;
12776;SDS011;6452;41.572;23.732;2022-12-29T03:44:39;45.97;;;34.45;;
12776;SDS011;6452;41.572;23.732;2022-12-29T03:47:06;47.60;;;37.08;;
12776;SDS011;6452;41.572;23.732;2022-12-29T03:49:32;46.80;;;36.58;;
12776;SDS011;6452;41.572;23.732;2022-12-29T03:51:58;51.30;;;38.75;;
12776;SDS011;6452;41.572;23.732;2022-12-29T03:54:24;47.03;;;36.42;;
12776;SDS011;6452;41.572;23.732;2022-12-29T03:56:50;48.08;;;35.80;;
12776;SDS011;6452;41.572;23.732;2022-12-29T03:59:16;45.10;;;33.78;;
12776;SDS011;6452;41.572;23.732;2022-12-29T04:01:42;58.33;;;40.83;;
12776;SDS011;6452;41.572;23.732;2022-12-29T04:04:08;72.60;;;50.55;;
12776;SDS011;6452;41.572;23.732;2022-12-29T04:06:34;67.50;;;49.13;;
12776;SDS011;6452;41.572;23.732;2022-12-29T04:09:00;51.72;;;37.70;;
12776;SDS011;6452;41.572;23.732;2022-12-29T04:11:26;45.65;;;35.50;;
12776;SDS011;6452;41.572;23.732;2022-12-29T04:13:52;45.63;;;33.67;;
12776;SDS011;6452;41.572;23.732;2022-12-29T04:16:18;51.45;;;40.08;;
12776;SDS011;6452;41.572;23.732;2022-12-29T04:18:44;50.30;;;39.53;;
12776;SDS011;6452;41.572;23.732;2022-12-29T04:21:10;47.75;;;36.45;;
12776;SDS011;6452;41.572;23.732;2022-12-29T04:23:37;39.75;;;31.83;;
12776;SDS011;6452;41.572;23.732;2022-12-29T04:26:04;44.83;;;34.75;;
12776;SDS011;6452;41.572;23.732;2022-12-29T04:28:32;50.25;;;38.35;;
12776;SDS011;6452;41.572;23.732;2022-12-29T04:30:58;47.33;;;35.83;;
12776;SDS011;6452;41.572;23.732;2022-12-29T04:33:24;47.63;;;35.25;;
12776;SDS011;6452;41.572;23.732;2022-12-29T04:35:51;44.15;;;34.55;;
12776;SDS011;6452;41.572;23.732;2022-12-29T04:38:19;45.70;;;35.28;;
12776;SDS011;6452;41.572;23.732;2022-12-29T04:40:45;76.43;;;53.00;;
12776;SDS011;6452;41.572;23.732;2022-12-29T04:43:11;58.80;;;44.05;;
12776;SDS011;6452;41.572;23.732;2022-12-29T04:45:36;66.60;;;46.35;;
12776;SDS011;6452;41.572;23.732;2022-12-29T04:48:03;56.60;;;41.83;;
12776;SDS011;6452;41.572;23.732;2022-12-29T04:50:30;59.35;;;43.92;;
12776;SDS011;6452;41.572;23.732;2022-12-29T04:52:55;66.50;;;47.53;;
12776;SDS011;6452;41.572;23.732;2022-12-29T04:55:21;77.93;;;52.25;;
12776;SDS011;6452;41.572;23.732;2022-12-29T04:57:48;76.88;;;53.97;;
12776;SDS011;6452;41.572;23.732;2022-12-29T05:00:14;85.75;;;56.92;;
12776;SDS011;6452;41.572;23.732;2022-12-29T05:02:40;85.65;;;58.10;;
12776;SDS011;6452;41.572;23.732;2022-12-29T05:05:06;87.32;;;60.33;;
12776;SDS011;6452;41.572;23.732;2022-12-29T05:07:33;89.18;;;60.10;;
12776;SDS011;6452;41.572;23.732;2022-12-29T05:10:00;76.38;;;56.05;;
12776;SDS011;6452;41.572;23.732;2022-12-29T05:12:29;75.18;;;56.53;;
12776;SDS011;6452;41.572;23.732;2022-12-29T05:14:55;75.60;;;53.95;;
12776;SDS011;6452;41.572;23.732;2022-12-29T05:20:23;85.93;;;58.78;;
12776;SDS011;6452;41.572;23.732;2022-12-29T05:22:50;83.57;;;58.53;;
12776;SDS011;6452;41.572;23.732;2022-12-29T05:25:16;76.15;;;54.80;;
12776;SDS011;6452;41.572;23.732;2022-12-29T05:27:42;76.32;;;56.05;;
12776;SDS011;6452;41.572;23.732;2022-12-29T05:30:08;81.40;;;57.88;;
12776;SDS011;6452;41.572;23.732;2022-12-29T05:32:34;80.93;;;55.50;;
12776;SDS011;6452;41.572;23.732;2022-12-29T05:35:00;93.47;;;63.05;;
12776;SDS011;6452;41.572;23.732;2022-12-29T05:37:26;91.60;;;64.03;;
12776;SDS011;6452;41.572;23.732;2022-12-29T05:39:52;95.80;;;63.50;;
12776;SDS011;6452;41.572;23.732;2022-12-29T05:42:23;98.32;;;63.47;;
12776;SDS011;6452;41.572;23.732;2022-12-29T05:44:49;104.43;;;68.50;;
12776;SDS011;6452;41.572;23.732;2022-12-29T05:47:19;103.70;;;72.78;;
12776;SDS011;6452;41.572;23.732;2022-12-29T05:49:45;103.53;;;66.43;;
12776;SDS011;6452;41.572;23.732;2022-12-29T05:55:11;91.35;;;62.70;;
12776;SDS011;6452;41.572;23.732;2022-12-29T05:57:36;108.85;;;71.07;;
12776;SDS011;6452;41.572;23.732;2022-12-29T06:00:03;98.50;;;66.88;;
12776;SDS011;6452;41.572;23.732;2022-12-29T06:02:29;87.82;;;61.90;;
12776;SDS011;6452;41.572;23.732;2022-12-29T06:04:55;94.32;;;64.25;;
12776;SDS011;6452;41.572;23.732;2022-12-29T06:07:21;105.25;;;71.07;;
12776;SDS011;6452;41.572;23.732;2022-12-29T06:09:46;97.65;;;67.55;;
12776;SDS011;6452;41.572;23.732;2022-12-29T06:12:12;75.22;;;54.60;;
12776;SDS011;6452;41.572;23.732;2022-12-29T06:14:38;76.65;;;52.67;;
12776;SDS011;6452;41.572;23.732;2022-12-29T06:17:04;73.32;;;52.08;;
12776;SDS011;6452;41.572;23.732;2022-12-29T06:19:30;63.63;;;47.80;;
12776;SDS011;6452;41.572;23.732;2022-12-29T06:21:56;63.90;;;46.67;;
12776;SDS011;6452;41.572;23.732;2022-12-29T06:24:22;68.30;;;47.78;;
12776;SDS011;6452;41.572;23.732;2022-12-29T06:26:48;67.60;;;48.58;;
12776;SDS011;6452;41.572;23.732;2022-12-29T06:29:14;70.10;;;49.95;;
12776;SDS011;6452;41.572;23.732;2022-12-29T06:31:42;72.10;;;50.15;;
12776;SDS011;6452;41.572;23.732;2022-12-29T06:34:11;72.40;;;51.22;;
12776;SDS011;6452;41.572;23.732;2022-12-29T06:36:37;69.43;;;47.42;;
12776;SDS011;6452;41.572;23.732;2022-12-29T06:39:04;63.97;;;44.78;;
12776;SDS011;6452;41.572;23.732;2022-12-29T06:41:30;68.60;;;47.28;;
12776;SDS011;6452;41.572;23.732;2022-12-29T06:43:57;73.10;;;49.53;;
12776;SDS011;6452;41.572;23.732;2022-12-29T06:46:23;74.88;;;49.20;;
12776;SDS011;6452;41.572;23.732;2022-12-29T06:48:49;77.63;;;50.70;;
12776;SDS011;6452;41.572;23.732;2022-12-29T06:51:16;72.47;;;49.33;;
12776;SDS011;6452;41.572;23.732;2022-12-29T06:53:42;72.85;;;50.53;;
12776;SDS011;6452;41.572;23.732;2022-12-29T06:56:08;72.10;;;47.90;;
12776;SDS011;6452;41.572;23.732;2022-12-29T06:58:34;79.90;;;58.90;;
12776;SDS011;6452;41.572;23.732;2022-12-29T07:01:01;65.38;;;51.58;;
12776;SDS011;6452;41.572;23.732;2022-12-29T07:03:27;70.28;;;53.05;;
12776;SDS011;6452;41.572;23.732;2022-12-29T07:05:52;64.03;;;51.10;;
12776;SDS011;6452;41.572;23.732;2022-12-29T07:08:20;69.68;;;51.00;;
12776;SDS011;6452;41.572;23.732;2022-12-29T07:10:46;67.63;;;51.20;;
12776;SDS011;6452;41.572;23.732;2022-12-29T07:13:11;65.30;;;53.70;;
12776;SDS011;6452;41.572;23.732;2022-12-29T07:15:38;63.33;;;52.33;;
12776;SDS011;6452;41.572;23.732;2022-12-29T07:18:04;62.83;;;52.13;;
12776;SDS011;6452;41.572;23.732;2022-12-29T07:20:30;67.63;;;52.78;;
12776;SDS011;6452;41.572;23.732;2022-12-29T07:22:56;67.97;;;53.83;;
12776;SDS011;6452;41.572;23.732;2022-12-29T07:25:22;74.68;;;58.70;;
12776;SDS011;6452;41.572;23.732;2022-12-29T07:27:49;64.45;;;53.45;;
12776;SDS011;6452;41.572;23.732;2022-12-29T07:30:14;64.47;;;52.70;;
12776;SDS011;6452;41.572;23.732;2022-12-29T07:32:40;65.25;;;50.55;;
12776;SDS011;6452;41.572;23.732;2022-12-29T07:35:06;60.72;;;49.28;;
12776;SDS011;6452;41.572;23.732;2022-12-29T07:37:33;66.13;;;53.28;;
12776;SDS011;6452;41.572;23.732;2022-12-29T07:40:00;126.75;;;87.85;;
12776;SDS011;6452;41.572;23.732;2022-12-29T07:42:31;106.18;;;75.05;;
12776;SDS011;6452;41.572;23.732;2022-12-29T07:44:57;76.93;;;59.42;;
12776;SDS011;6452;41.572;23.732;2022-12-29T07:47:23;74.13;;;59.22;;
12776;SDS011;6452;41.572;23.732;2022-12-29T07:49:49;65.00;;;50.90;;
12776;SDS011;6452;41.572;23.732;2022-12-29T07:52:15;58.85;;;49.65;;
12776;SDS011;6452;41.572;23.732;2022-12-29T07:54:41;65.40;;;52.50;;
12776;SDS011;6452;41.572;23.732;2022-12-29T07:57:08;64.60;;;52.58;;
12776;SDS011;6452;41.572;23.732;2022-12-29T07:59:33;71.68;;;55.13;;
12776;SDS011;6452;41.572;23.732;2022-12-29T08:01:59;87.88;;;67.22;;
12776;SDS011;6452;41.572;23.732;2022-12-29T08:04:25;102.68;;;77.72;;
12776;SDS011;6452;41.572;23.732;2022-12-29T08:06:52;101.53;;;76.68;;
12776;SDS011;6452;41.572;23.732;2022-12-29T08:09:18;86.13;;;69.15;;
12776;SDS011;6452;41.572;23.732;2022-12-29T08:11:44;73.03;;;55.65;;
12776;SDS011;6452;41.572;23.732;2022-12-29T08:14:09;83.80;;;64.05;;
12776;SDS011;6452;41.572;23.732;2022-12-29T08:16:35;54.70;;;47.70;;
12776;SDS011;6452;41.572;23.732;2022-12-29T08:19:01;46.65;;;41.55;;
12776;SDS011;6452;41.572;23.732;2022-12-29T08:21:29;45.20;;;40.33;;
12776;SDS011;6452;41.572;23.732;2022-12-29T08:23:55;44.38;;;39.42;;
12776;SDS011;6452;41.572;23.732;2022-12-29T08:26:21;43.33;;;38.75;;
12776;SDS011;6452;41.572;23.732;2022-12-29T08:28:47;46.13;;;40.25;;
12776;SDS011;6452;41.572;23.732;2022-12-29T08:31:13;42.25;;;37.22;;
12776;SDS011;6452;41.572;23.732;2022-12-29T08:33:39;45.78;;;39.85;;
12776;SDS011;6452;41.572;23.732;2022-12-29T08:36:05;48.75;;;41.20;;
12776;SDS011;6452;41.572;23.732;2022-12-29T08:38:32;49.33;;;42.00;;
12776;SDS011;6452;41.572;23.732;2022-12-29T08:40:58;58.30;;;48.67;;
12776;SDS011;6452;41.572;23.732;2022-12-29T08:43:26;58.42;;;48.13;;
12776;SDS011;6452;41.572;23.732;2022-12-29T08:45:52;49.03;;;42.97;;
12776;SDS011;6452;41.572;23.732;2022-12-29T08:48:18;43.90;;;37.55;;
12776;SDS011;6452;41.572;23.732;2022-12-29T08:50:45;42.13;;;35.50;;
12776;SDS011;6452;41.572;23.732;2022-12-29T08:53:11;40.05;;;35.75;;
12776;SDS011;6452;41.572;23.732;2022-12-29T08:55:37;42.35;;;37.58;;
12776;SDS011;6452;41.572;23.732;2022-12-29T08:58:03;47.92;;;39.97;;
12776;SDS011;6452;41.572;23.732;2022-12-29T09:00:29;53.60;;;41.40;;
12776;SDS011;6452;41.572;23.732;2022-12-29T09:02:55;45.55;;;40.55;;
12776;SDS011;6452;41.572;23.732;2022-12-29T09:05:21;46.13;;;40.90;;
12776;SDS011;6452;41.572;23.732;2022-12-29T09:07:50;48.33;;;41.92;;
12776;SDS011;6452;41.572;23.732;2022-12-29T09:10:17;52.67;;;43.00;;
12776;SDS011;6452;41.572;23.732;2022-12-29T09:12:43;39.17;;;35.03;;
12776;SDS011;6452;41.572;23.732;2022-12-29T09:15:09;38.88;;;34.22;;
12776;SDS011;6452;41.572;23.732;2022-12-29T09:17:35;42.95;;;38.33;;
12776;SDS011;6452;41.572;23.732;2022-12-29T09:20:17;37.97;;;33.78;;
12776;SDS011;6452;41.572;23.732;2022-12-29T09:22:44;40.90;;;36.47;;
12776;SDS011;6452;41.572;23.732;2022-12-29T09:25:10;38.42;;;34.28;;
12776;SDS011;6452;41.572;23.732;2022-12-29T09:27:36;38.67;;;34.53;;
12776;SDS011;6452;41.572;23.732;2022-12-29T09:30:06;41.50;;;35.45;;
12776;SDS011;6452;41.572;23.732;2022-12-29T09:32:32;42.10;;;34.28;;
12776;SDS011;6452;41.572;23.732;2022-12-29T09:34:58;37.05;;;33.05;;
12776;SDS011;6452;41.572;23.732;2022-12-29T09:37:24;38.72;;;33.38;;
12776;SDS011;6452;41.572;23.732;2022-12-29T09:39:50;37.55;;;33.50;;
12776;SDS011;6452;41.572;23.732;2022-12-29T09:42:23;31.80;;;28.40;;
12776;SDS011;6452;41.572;23.732;2022-12-29T09:44:56;35.97;;;31.48;;
12776;SDS011;6452;41.572;23.732;2022-12-29T09:47:27;31.17;;;28.08;;
12776;SDS011;6452;41.572;23.732;2022-12-29T09:49:59;32.75;;;29.20;;
12776;SDS011;6452;41.572;23.732;2022-12-29T09:52:30;32.03;;;28.70;;
12776;SDS011;6452;41.572;23.732;2022-12-29T09:55:33;33.58;;;29.35;;
12776;SDS011;6452;41.572;23.732;2022-12-29T10:00:19;28.50;;;24.23;;
12776;SDS011;6452;41.572;23.732;2022-12-29T10:05:16;30.08;;;26.88;;
12776;SDS011;6452;41.572;23.732;2022-12-29T10:07:50;24.25;;;21.75;;
12776;SDS011;6452;41.572;23.732;2022-12-29T10:10:28;29.98;;;26.77;;
12776;SDS011;6452;41.572;23.732;2022-12-29T10:17:54;34.65;;;30.40;;
12776;SDS011;6452;41.572;23.732;2022-12-29T10:25:28;41.92;;;36.63;;
12776;SDS011;6452;41.572;23.732;2022-12-29T10:27:57;40.45;;;34.33;;
12776;SDS011;6452;41.572;23.732;2022-12-29T10:30:25;40.20;;;34.08;;
12776;SDS011;6452;41.572;23.732;2022-12-29T10:32:54;38.50;;;33.03;;
12776;SDS011;6452;41.572;23.732;2022-12-29T10:35:23;39.63;;;34.45;;
12776;SDS011;6452;41.572;23.732;2022-12-29T10:42:59;38.58;;;34.03;;
12776;SDS011;6452;41.572;23.732;2022-12-29T10:45:27;41.45;;;34.42;;
12776;SDS011;6452;41.572;23.732;2022-12-29T10:50:20;55.85;;;43.53;;
12776;SDS011;6452;41.572;23.732;2022-12-29T10:52:46;52.55;;;39.95;;
12776;SDS011;6452;41.572;23.732;2022-12-29T10:55:17;51.78;;;39.85;;
12776;SDS011;6452;41.572;23.732;2022-12-29T10:57:45;56.08;;;42.53;;
12776;SDS011;6452;41.572;23.732;2022-12-29T11:00:15;50.22;;;39.33;;
12776;SDS011;6452;41.572;23.732;2022-12-29T11:07:42;62.03;;;45.95;;
12776;SDS011;6452;41.572;23.732;2022-12-29T11:12:59;53.55;;;42.65;;
12776;SDS011;6452;41.572;23.732;2022-12-29T11:15:42;68.53;;;52.17;;
12776;SDS011;6452;41.572;23.732;2022-12-29T11:18:19;74.00;;;60.55;;
12776;SDS011;6452;41.572;23.732;2022-12-29T11:20:49;76.13;;;55.70;;
12776;SDS011;6452;41.572;23.732;2022-12-29T11:23:29;79.22;;;60.47;;
12776;SDS011;6452;41.572;23.732;2022-12-29T11:28:31;92.63;;;69.80;;
12776;SDS011;6452;41.572;23.732;2022-12-29T11:30:59;107.63;;;82.60;;
12776;SDS011;6452;41.572;23.732;2022-12-29T11:33:27;122.10;;;91.53;;
12776;SDS011;6452;41.572;23.732;2022-12-29T11:35:57;133.82;;;100.80;;
12776;SDS011;6452;41.572;23.732;2022-12-29T11:38:25;127.45;;;93.20;;
12776;SDS011;6452;41.572;23.732;2022-12-29T11:40:51;92.25;;;68.88;;
12776;SDS011;6452;41.572;23.732;2022-12-29T11:43:39;94.28;;;69.25;;
12776;SDS011;6452;41.572;23.732;2022-12-29T11:46:03;105.72;;;83.47;;
12776;SDS011;6452;41.572;23.732;2022-12-29T11:48:40;66.47;;;54.45;;
12776;SDS011;6452;41.572;23.732;2022-12-29T11:51:07;36.10;;;31.13;;
12776;SDS011;6452;41.572;23.732;2022-12-29T11:53:42;37.00;;;31.38;;
12776;SDS011;6452;41.572;23.732;2022-12-29T11:56:16;49.88;;;44.08;;
12776;SDS011;6452;41.572;23.732;2022-12-29T11:58:43;40.15;;;35.83;;
12776;SDS011;6452;41.572;23.732;2022-12-29T12:03:36;38.35;;;32.88;;
12776;SDS011;6452;41.572;23.732;2022-12-29T12:06:03;27.38;;;24.67;;
12776;SDS011;6452;41.572;23.732;2022-12-29T12:08:36;20.17;;;17.83;;
12776;SDS011;6452;41.572;23.732;2022-12-29T12:16:19;24.27;;;20.30;;
12776;SDS011;6452;41.572;23.732;2022-12-29T12:18:47;18.38;;;16.58;;
12776;SDS011;6452;41.572;23.732;2022-12-29T12:26:32;18.45;;;16.55;;
12776;SDS011;6452;41.572;23.732;2022-12-29T12:31:56;10.60;;;9.60;;
12776;SDS011;6452;41.572;23.732;2022-12-29T12:34:24;14.45;;;13.05;;
12776;SDS011;6452;41.572;23.732;2022-12-29T12:54:34;13.52;;;10.32;;
12776;SDS011;6452;41.572;23.732;2022-12-29T13:00:17;18.85;;;17.17;;
12776;SDS011;6452;41.572;23.732;2022-12-29T13:18:33;18.65;;;17.02;;
12776;SDS011;6452;41.572;23.732;2022-12-29T13:28:28;22.77;;;20.65;;
12776;SDS011;6452;41.572;23.732;2022-12-29T13:38:45;19.63;;;15.95;;
12776;SDS011;6452;41.572;23.732;2022-12-29T13:41:29;18.15;;;15.05;;
12776;SDS011;6452;41.572;23.732;2022-12-29T13:43:59;15.93;;;14.32;;
12776;SDS011;6452;41.572;23.732;2022-12-29T13:46:35;18.88;;;16.73;;
12776;SDS011;6452;41.572;23.732;2022-12-29T13:49:07;49.20;;;41.63;;
12776;SDS011;6452;41.572;23.732;2022-12-29T14:00:22;55.60;;;43.95;;
12776;SDS011;6452;41.572;23.732;2022-12-29T14:07:47;55.45;;;41.17;;
12776;SDS011;6452;41.572;23.732;2022-12-29T14:12:51;61.13;;;44.40;;
12776;SDS011;6452;41.572;23.732;2022-12-29T14:15:25;119.82;;;89.47;;
12776;SDS011;6452;41.572;23.732;2022-12-29T14:28:27;73.95;;;55.28;;
12776;SDS011;6452;41.572;23.732;2022-12-29T14:30:54;74.20;;;54.75;;
12776;SDS011;6452;41.572;23.732;2022-12-29T14:33:20;61.63;;;45.72;;
12776;SDS011;6452;41.572;23.732;2022-12-29T14:35:47;59.90;;;45.17;;
12776;SDS011;6452;41.572;23.732;2022-12-29T14:38:18;63.90;;;47.60;;
12776;SDS011;6452;41.572;23.732;2022-12-29T14:40:45;61.45;;;46.22;;
12776;SDS011;6452;41.572;23.732;2022-12-29T14:43:12;59.17;;;45.35;;
12776;SDS011;6452;41.572;23.732;2022-12-29T14:45:40;69.35;;;48.25;;
12776;SDS011;6452;41.572;23.732;2022-12-29T14:50:51;123.50;;;83.60;;
12776;SDS011;6452;41.572;23.732;2022-12-29T14:56:01;83.22;;;53.90;;
12776;SDS011;6452;41.572;23.732;2022-12-29T14:58:28;76.00;;;50.47;;
12776;SDS011;6452;41.572;23.732;2022-12-29T15:00:55;77.80;;;48.47;;
12776;SDS011;6452;41.572;23.732;2022-12-29T15:03:22;82.50;;;54.95;;
12776;SDS011;6452;41.572;23.732;2022-12-29T15:05:53;85.43;;;55.20;;
12776;SDS011;6452;41.572;23.732;2022-12-29T15:08:38;76.28;;;49.83;;
12776;SDS011;6452;41.572;23.732;2022-12-29T15:13:46;48.47;;;34.88;;
12776;SDS011;6452;41.572;23.732;2022-12-29T15:16:47;45.75;;;33.78;;
12776;SDS011;6452;41.572;23.732;2022-12-29T15:19:20;51.00;;;38.75;;
12776;SDS011;6452;41.572;23.732;2022-12-29T15:21:46;56.72;;;42.78;;
12776;SDS011;6452;41.572;23.732;2022-12-29T15:24:13;76.53;;;49.75;;
12776;SDS011;6452;41.572;23.732;2022-12-29T15:26:41;88.18;;;55.78;;
12776;SDS011;6452;41.572;23.732;2022-12-29T15:31:52;97.18;;;63.53;;
12776;SDS011;6452;41.572;23.732;2022-12-29T15:34:20;108.68;;;71.20;;
12776;SDS011;6452;41.572;23.732;2022-12-29T15:36:46;101.03;;;65.18;;
12776;SDS011;6452;41.572;23.732;2022-12-29T15:39:27;94.70;;;62.47;;
12776;SDS011;6452;41.572;23.732;2022-12-29T15:41:54;86.18;;;59.53;;
12776;SDS011;6452;41.572;23.732;2022-12-29T15:44:39;87.18;;;53.53;;
12776;SDS011;6452;41.572;23.732;2022-12-29T15:47:05;85.22;;;51.47;;
12776;SDS011;6452;41.572;23.732;2022-12-29T15:49:32;81.88;;;53.22;;
12776;SDS011;6452;41.572;23.732;2022-12-29T15:51:58;85.75;;;57.05;;
12776;SDS011;6452;41.572;23.732;2022-12-29T15:54:24;75.70;;;52.88;;
12776;SDS011;6452;41.572;23.732;2022-12-29T15:56:51;77.57;;;51.38;;
12776;SDS011;6452;41.572;23.732;2022-12-29T16:01:50;80.25;;;53.00;;
12776;SDS011;6452;41.572;23.732;2022-12-29T16:04:16;93.45;;;53.20;;
12776;SDS011;6452;41.572;23.732;2022-12-29T16:07:02;81.93;;;51.47;;
12776;SDS011;6452;41.572;23.732;2022-12-29T16:09:30;78.05;;;47.80;;
12776;SDS011;6452;41.572;23.732;2022-12-29T16:11:57;82.30;;;48.47;;
12776;SDS011;6452;41.572;23.732;2022-12-29T16:14:29;78.85;;;47.45;;
12776;SDS011;6452;41.572;23.732;2022-12-29T16:16:56;73.28;;;46.80;;
12776;SDS011;6452;41.572;23.732;2022-12-29T16:21:52;70.97;;;45.63;;
12776;SDS011;6452;41.572;23.732;2022-12-29T16:24:18;66.90;;;43.08;;
12776;SDS011;6452;41.572;23.732;2022-12-29T16:26:46;67.05;;;42.78;;
12776;SDS011;6452;41.572;23.732;2022-12-29T16:29:13;66.13;;;44.60;;
12776;SDS011;6452;41.572;23.732;2022-12-29T16:34:59;71.50;;;47.67;;
12776;SDS011;6452;41.572;23.732;2022-12-29T16:39:32;60.38;;;42.28;;
12776;SDS011;6452;41.572;23.732;2022-12-29T16:41:58;64.30;;;46.38;;
12776;SDS011;6452;41.572;23.732;2022-12-29T16:49:36;68.43;;;48.80;;
12776;SDS011;6452;41.572;23.732;2022-12-29T16:52:18;63.28;;;46.33;;
12776;SDS011;6452;41.572;23.732;2022-12-29T16:54:48;61.40;;;44.95;;
12776;SDS011;6452;41.572;23.732;2022-12-29T16:57:14;75.97;;;51.45;;
12776;SDS011;6452;41.572;23.732;2022-12-29T16:59:46;128.45;;;94.63;;
12776;SDS011;6452;41.572;23.732;2022-12-29T17:02:16;202.63;;;124.10;;
12776;SDS011;6452;41.572;23.732;2022-12-29T17:04:42;197.88;;;126.82;;
12776;SDS011;6452;41.572;23.732;2022-12-29T17:07:15;159.77;;;103.32;;
12776;SDS011;6452;41.572;23.732;2022-12-29T17:09:41;121.78;;;80.45;;
12776;SDS011;6452;41.572;23.732;2022-12-29T17:12:07;124.10;;;83.25;;
12776;SDS011;6452;41.572;23.732;2022-12-29T17:14:45;154.93;;;98.95;;
12776;SDS011;6452;41.572;23.732;2022-12-29T17:17:20;167.52;;;113.82;;
12776;SDS011;6452;41.572;23.732;2022-12-29T17:19:47;136.85;;;93.05;;
12776;SDS011;6452;41.572;23.732;2022-12-29T17:22:24;143.98;;;92.47;;
12776;SDS011;6452;41.572;23.732;2022-12-29T17:24:54;167.15;;;103.97;;
12776;SDS011;6452;41.572;23.732;2022-12-29T17:27:21;166.75;;;106.45;;
12776;SDS011;6452;41.572;23.732;2022-12-29T17:29:48;157.10;;;106.80;;
12776;SDS011;6452;41.572;23.732;2022-12-29T17:32:15;157.93;;;104.43;;
12776;SDS011;6452;41.572;23.732;2022-12-29T17:34:41;184.70;;;117.82;;
12776;SDS011;6452;41.572;23.732;2022-12-29T17:39:48;191.45;;;126.30;;
12776;SDS011;6452;41.572;23.732;2022-12-29T17:42:14;215.77;;;141.25;;